Time;durP1;ratioP1;P1;durP2;ratioP2;P2;SDS_P1;SDS_P2;PMS_P1;PMS_P2;Temp;Humidity;BMP_temperature;BMP_pressure;BME280_temperature;BME280_humidity;BME280_pressure;Samples;Min_cycle;Max_cycle;Signal;HPM_P1;HPM_P2
2022/02/01 10:12:20;;;;;;;10.67;10.07;;;6.70;99.90;;;;;;5086626;27;20561;-71
2022/02/01 10:14:57;;;;;;;11.00;10.10;;;7.70;99.90;;;;;;5087081;28;20521;-72
2022/02/01 10:17:37;;;;;;;12.13;11.10;;;7.70;99.90;;;;;;5087012;28;20894;-71
2022/02/01 10:20:04;;;;;;;12.27;10.40;;;7.80;99.90;;;;;;5086748;28;20450;-71
2022/02/01 10:22:35;;;;;;;10.20;9.50;;;7.90;99.90;;;;;;5087060;28;20445;-72
2022/02/01 10:25:03;;;;;;;10.70;9.90;;;8.00;99.90;;;;;;5087081;28;20502;-72
2022/02/01 10:27:33;;;;;;;11.80;10.77;;;8.20;99.90;;;;;;5086924;28;20453;-72
2022/02/01 10:30:08;;;;;;;10.30;9.60;;;8.30;99.90;;;;;;5086664;28;20490;-72
2022/02/01 10:32:53;;;;;;;10.60;9.70;;;8.60;99.90;;;;;;5086556;28;20545;-72
2022/02/01 10:35:26;;;;;;;10.43;9.77;;;8.60;99.90;;;;;;5086688;28;20494;-72
2022/02/01 10:37:57;;;;;;;10.40;9.70;;;8.70;99.90;;;;;;5086568;28;21017;-72
2022/02/01 10:40:24;;;;;;;9.70;8.27;;;9.20;99.90;;;;;;5086363;28;20502;-72
2022/02/01 10:42:55;;;;;;;10.23;9.70;;;9.30;99.90;;;;;;5086419;28;20446;-72
2022/02/01 10:45:22;;;;;;;10.63;9.70;;;9.00;99.90;;;;;;5086381;28;21007;-72
2022/02/01 10:47:49;;;;;;;12.40;11.10;;;8.50;99.90;;;;;;5086357;28;20454;-71
2022/02/01 10:50:18;;;;;;;9.63;8.60;;;8.10;99.90;;;;;;5086508;28;20488;-72
2022/02/01 10:52:46;;;;;;;9.93;9.43;;;7.60;99.90;;;;;;5086551;28;20446;-72
2022/02/01 10:55:15;;;;;;;9.13;8.63;;;7.40;99.90;;;;;;5086367;28;20454;-73
2022/02/01 10:57:41;;;;;;;10.03;9.03;;;7.20;99.90;;;;;;5086107;28;20469;-73
2022/02/01 11:00:13;;;;;;;9.93;8.83;;;7.10;99.90;;;;;;5086099;28;20442;-73
2022/02/01 11:02:43;;;;;;;9.07;8.67;;;7.20;99.90;;;;;;5085854;28;21016;-73
2022/02/01 11:05:10;;;;;;;9.33;8.87;;;7.10;99.90;;;;;;5085861;28;21079;-73
2022/02/01 11:07:37;;;;;;;10.17;9.40;;;7.10;99.90;;;;;;5085983;28;20453;-73
2022/02/01 11:10:08;;;;;;;9.97;9.13;;;7.10;99.90;;;;;;5089628;28;20830;-73
2022/02/01 11:12:35;;;;;;;10.23;9.63;;;7.10;99.90;;;;;;5117053;28;20935;-73
2022/02/01 11:15:03;;;;;;;9.90;9.37;;;7.20;99.90;;;;;;5113146;28;20459;-75
2022/02/01 11:17:41;;;;;;;8.93;8.50;;;7.20;99.90;;;;;;5112992;28;20452;-73
2022/02/01 11:20:09;;;;;;;8.70;8.20;;;7.40;99.90;;;;;;5112686;28;20475;-73
2022/02/01 11:22:39;;;;;;;10.10;9.33;;;7.60;99.90;;;;;;5112652;28;20545;-73
2022/02/01 11:25:20;;;;;;;9.50;8.90;;;7.90;99.90;;;;;;5112645;28;20463;-73
2022/02/01 11:28:00;;;;;;;10.30;9.50;;;7.90;99.90;;;;;;5112971;28;20505;-73
2022/02/01 11:30:35;;;;;;;9.70;9.10;;;8.00;99.90;;;;;;5112673;28;20480;-73
2022/02/01 11:33:05;;;;;;;10.70;9.80;;;7.70;99.90;;;;;;5112801;28;20489;-72
2022/02/01 11:35:32;;;;;;;9.93;9.43;;;7.70;99.90;;;;;;5113014;28;20501;-73
2022/02/01 11:38:03;;;;;;;10.77;10.00;;;7.80;99.90;;;;;;5112663;28;20445;-74
2022/02/01 11:40:35;;;;;;;10.30;9.40;;;7.70;99.90;;;;;;5112681;28;20788;-74
2022/02/01 11:43:06;;;;;;;9.43;8.80;;;7.60;99.90;;;;;;5112684;28;20449;-73
2022/02/01 11:45:35;;;;;;;10.17;9.47;;;7.60;99.90;;;;;;5112507;28;20461;-73
2022/02/01 11:48:15;;;;;;;10.10;9.50;;;7.60;99.90;;;;;;5112461;28;20444;-72
2022/02/01 11:50:46;;;;;;;9.97;9.40;;;7.30;99.90;;;;;;5112292;28;20481;-73
2022/02/01 11:53:20;;;;;;;10.50;9.90;;;7.20;99.90;;;;;;5112280;28;20449;-73
2022/02/01 11:55:49;;;;;;;10.67;9.47;;;7.20;99.90;;;;;;5112410;28;20531;-72
2022/02/01 11:58:27;;;;;;;10.27;9.23;;;7.00;99.90;;;;;;5112449;28;20456;-73
2022/02/01 12:00:54;;;;;;;9.10;8.60;;;7.20;99.90;;;;;;5112143;28;20818;-73
2022/02/01 12:03:27;;;;;;;9.03;8.40;;;7.00;99.90;;;;;;5111770;28;20472;-73
2022/02/01 12:06:04;;;;;;;10.07;9.47;;;6.60;99.90;;;;;;5112081;28;20474;-72
2022/02/01 12:08:32;;;;;;;9.90;8.90;;;6.60;99.90;;;;;;5112192;28;20454;-72
2022/02/01 12:11:01;;;;;;;9.70;9.10;;;6.50;99.90;;;;;;5111784;28;20591;-72
2022/02/01 12:13:28;;;;;;;9.93;9.33;;;6.40;99.90;;;;;;5111870;28;20446;-73
2022/02/01 12:15:57;;;;;;;8.93;8.63;;;6.50;99.90;;;;;;5111826;28;20455;-72
2022/02/01 12:18:33;;;;;;;10.20;9.30;;;6.80;99.90;;;;;;5111591;28;20478;-72
2022/02/01 12:21:26;;;;;;;9.17;8.77;;;6.70;99.90;;;;;;5112224;28;20891;-72
2022/02/01 12:23:55;;;;;;;9.50;9.00;;;6.70;99.90;;;;;;5110563;28;20441;-73
2022/02/01 12:26:24;;;;;;;9.43;8.73;;;6.60;99.90;;;;;;5111480;28;20525;-72
2022/02/01 12:28:52;;;;;;;9.23;8.73;;;6.20;99.90;;;;;;5111448;28;20953;-72
2022/02/01 12:31:20;;;;;;;10.83;10.03;;;6.10;99.90;;;;;;5111540;28;20498;-71
2022/02/01 12:33:52;;;;;;;8.63;7.93;;;5.90;99.90;;;;;;5111634;28;20487;-72
2022/02/01 12:36:26;;;;;;;10.97;9.97;;;5.80;99.90;;;;;;5111584;28;20932;-73
2022/02/01 12:38:59;;;;;;;10.23;9.50;;;5.90;99.90;;;;;;5111461;28;20837;-72
2022/02/01 12:41:31;;;;;;;9.47;8.97;;;6.10;99.90;;;;;;5111288;28;20484;-73
2022/02/01 12:46:46;;;;;;;10.20;9.47;;;5.80;99.90;;;;;;5111333;28;20424;-74
2022/02/01 12:49:15;;;;;;;12.60;10.43;;;6.00;99.90;;;;;;5111135;28;20452;-73
2022/02/01 12:51:43;;;;;;;8.60;8.20;;;6.10;99.90;;;;;;5110878;28;20492;-73
2022/02/01 12:54:21;;;;;;;9.47;8.73;;;6.20;99.90;;;;;;5111092;28;20448;-72
2022/02/01 12:56:49;;;;;;;10.27;9.77;;;6.10;99.90;;;;;;5111257;28;20505;-73
2022/02/01 12:59:18;;;;;;;11.17;10.57;;;6.10;99.90;;;;;;5111270;28;20460;-73
2022/02/01 13:01:44;;;;;;;10.37;9.80;;;6.00;99.90;;;;;;5110829;28;20509;-73
2022/02/01 13:04:22;;;;;;;10.07;9.70;;;6.20;99.90;;;;;;5110745;28;20470;-73
2022/02/01 13:06:50;;;;;;;11.27;10.40;;;6.00;99.90;;;;;;5111013;28;20450;-74
2022/02/01 13:15:04;;;;;;;11.00;10.40;;;6.10;99.90;;;;;;5110764;28;20428;-72
2022/02/01 13:17:48;;;;;;;10.63;10.00;;;6.10;99.90;;;;;;5111026;28;20459;-72
2022/02/01 13:20:20;;;;;;;8.63;8.33;;;6.00;99.90;;;;;;5110839;28;20461;-72
2022/02/01 13:22:56;;;;;;;11.17;10.10;;;6.00;99.90;;;;;;5110854;28;20449;-72
2022/02/01 13:25:32;;;;;;;11.10;10.30;;;6.10;99.90;;;;;;5110782;28;20855;-72
2022/02/01 13:28:00;;;;;;;10.10;9.50;;;6.30;99.90;;;;;;5110394;28;20452;-73
2022/02/01 13:30:27;;;;;;;8.60;7.90;;;6.40;99.90;;;;;;5110759;28;20803;-72
2022/02/01 13:32:53;;;;;;;8.80;8.43;;;6.10;99.90;;;;;;5111948;28;20443;-72
2022/02/01 13:35:21;;;;;;;8.70;8.20;;;6.00;99.90;;;;;;5110923;28;20452;-73
2022/02/01 13:37:49;;;;;;;9.30;8.87;;;5.80;99.90;;;;;;5110227;28;20453;-72
2022/02/01 13:40:25;;;;;;;8.57;8.27;;;5.80;99.90;;;;;;5110439;28;20452;-72
2022/02/01 13:42:52;;;;;;;9.10;8.70;;;5.80;99.90;;;;;;5110322;28;20507;-72
2022/02/01 13:45:18;;;;;;;9.83;9.33;;;5.80;99.90;;;;;;5110254;28;20474;-73
2022/02/01 13:47:49;;;;;;;9.63;9.03;;;5.90;99.90;;;;;;5110291;28;20454;-73
2022/02/01 13:50:18;;;;;;;9.43;9.00;;;5.80;99.90;;;;;;5110552;28;20794;-73
2022/02/01 13:52:56;;;;;;;9.60;9.30;;;5.90;99.90;;;;;;5110272;28;20480;-72
2022/02/01 13:55:24;;;;;;;9.57;9.07;;;6.00;99.90;;;;;;5109931;28;20789;-72
2022/02/01 13:57:54;;;;;;;9.67;9.00;;;6.10;99.90;;;;;;5109967;28;20538;-72
2022/02/01 14:00:22;;;;;;;9.30;8.33;;;6.10;99.90;;;;;;5109928;28;20452;-72
2022/02/01 14:02:52;;;;;;;8.67;8.37;;;6.00;99.90;;;;;;5109873;28;20473;-73
2022/02/01 14:05:26;;;;;;;8.90;8.60;;;5.80;99.90;;;;;;5109986;28;20548;-72
2022/02/01 14:08:06;;;;;;;8.80;8.40;;;5.70;99.90;;;;;;5109780;28;20483;-73
2022/02/01 14:10:43;;;;;;;9.30;8.50;;;5.50;99.90;;;;;;5109873;28;20477;-72
2022/02/01 14:26:58;;;;;;;9.30;8.70;;;5.00;99.90;;;;;;5109995;28;20429;-74
2022/02/01 14:32:33;;;;;;;8.07;7.33;;;4.90;99.90;;;;;;5109628;28;21002;-73
2022/02/01 14:35:00;;;;;;;8.80;8.40;;;5.10;99.90;;;;;;5109898;28;20553;-72
2022/02/01 14:37:37;;;;;;;9.40;8.40;;;4.90;99.90;;;;;;5109607;28;20959;-74
2022/02/01 14:43:18;;;;;;;9.87;9.27;;;4.90;99.90;;;;;;5109976;28;20430;-74
2022/02/01 14:45:43;;;;;;;10.20;9.60;;;5.00;99.90;;;;;;5109544;28;20441;-73
2022/02/01 14:48:10;;;;;;;12.13;11.13;;;4.90;99.90;;;;;;5112507;28;20452;-74
2022/02/01 14:50:36;;;;;;;10.20;9.73;;;4.80;99.90;;;;;;5113380;28;20456;-74
2022/02/01 14:53:03;;;;;;;13.67;12.37;;;4.80;99.90;;;;;;5113605;28;20480;-74
2022/02/01 14:55:39;;;;;;;13.73;13.13;;;4.60;99.90;;;;;;5113642;28;20452;-73
2022/02/01 15:03:49;;;;;;;27.07;25.57;;;4.20;99.90;;;;;;5113248;28;20490;-74
2022/02/01 15:06:58;;;;;;;31.87;29.77;;;4.10;99.90;;;;;;5113495;28;20464;-73
2022/02/01 15:12:20;;;;;;;31.90;30.10;;;3.80;99.90;;;;;;5113009;28;20545;-75
2022/02/01 15:14:46;;;;;;;30.50;28.80;;;3.80;99.90;;;;;;5113612;28;20451;-74
2022/02/01 15:17:14;;;;;;;27.60;26.50;;;3.80;99.90;;;;;;5113033;28;20456;-74
2022/02/01 15:19:41;;;;;;;30.80;29.30;;;3.70;99.90;;;;;;5112905;28;20460;-73
2022/02/01 15:22:08;;;;;;;30.10;28.60;;;3.70;99.90;;;;;;5112912;28;20476;-73
2022/02/01 15:24:36;;;;;;;30.13;28.80;;;3.70;99.90;;;;;;5112852;27;20437;-74
2022/02/01 15:27:05;;;;;;;30.70;29.10;;;3.90;99.90;;;;;;5113016;28;20446;-74
2022/02/01 15:29:32;;;;;;;30.87;29.23;;;3.80;99.90;;;;;;5113082;28;20454;-74
2022/02/01 15:31:59;;;;;;;30.77;29.00;;;3.80;99.90;;;;;;5112689;28;20988;-74
2022/02/01 15:34:29;;;;;;;30.40;29.20;;;3.80;99.90;;;;;;5112621;28;20788;-73
2022/02/01 15:36:58;;;;;;;28.93;27.63;;;3.80;99.90;;;;;;5112521;28;21029;-73
2022/02/01 15:58:44;;;;;;;20.87;19.93;;;4.00;99.90;;;;;;5111893;28;20767;-73
2022/02/01 16:01:15;;;;;;;19.17;18.27;;;4.00;99.90;;;;;;5111955;28;20994;-74
2022/02/01 16:03:45;;;;;;;20.57;19.67;;;4.00;99.90;;;;;;5111780;28;20465;-73
2022/02/01 16:06:12;;;;;;;21.30;20.40;;;4.00;99.90;;;;;;5111905;28;20452;-72
2022/02/01 16:08:41;;;;;;;20.40;19.50;;;4.00;99.90;;;;;;5111826;28;20535;-71
2022/02/01 16:11:10;;;;;;;19.17;18.37;;;4.10;99.90;;;;;;5111734;28;20481;-74
2022/02/01 16:13:39;;;;;;;16.43;15.83;;;4.10;99.90;;;;;;5111772;28;20866;-73
2022/02/01 16:16:10;;;;;;;17.00;16.30;;;4.10;99.90;;;;;;5111734;28;20494;-72
2022/02/01 16:18:37;;;;;;;16.13;15.43;;;4.20;99.90;;;;;;5111733;28;20445;-72
2022/02/01 16:21:04;;;;;;;13.20;12.60;;;4.20;99.90;;;;;;5111558;28;20445;-72
2022/02/01 16:23:30;;;;;;;11.07;10.67;;;4.20;99.90;;;;;;5111900;28;20450;-72
2022/02/01 16:25:57;;;;;;;12.70;12.00;;;4.30;99.90;;;;;;5111519;28;20461;-72
2022/02/01 16:28:24;;;;;;;11.67;11.20;;;4.40;99.90;;;;;;5111240;28;20445;-72
2022/02/01 16:30:51;;;;;;;10.83;10.40;;;4.40;99.90;;;;;;5111368;28;20458;-73
2022/02/01 16:33:19;;;;;;;11.63;10.50;;;4.50;99.90;;;;;;5111438;28;20488;-73
2022/02/01 16:35:46;;;;;;;10.43;9.80;;;4.50;99.90;;;;;;5111509;28;20445;-73
2022/02/01 16:38:13;;;;;;;11.10;10.10;;;4.50;99.90;;;;;;5111104;28;20438;-73
2022/02/01 16:40:41;;;;;;;9.47;8.87;;;4.60;99.90;;;;;;5111212;28;20875;-73
2022/02/01 16:43:12;;;;;;;9.97;9.47;;;4.60;99.90;;;;;;5111115;28;20796;-73
2022/02/01 16:45:39;;;;;;;9.90;9.40;;;4.70;99.90;;;;;;5111236;28;20984;-73
2022/02/01 16:48:08;;;;;;;9.53;9.23;;;4.70;99.90;;;;;;5110908;28;20446;-73
2022/02/01 16:50:37;;;;;;;11.83;10.83;;;4.80;99.90;;;;;;5111079;28;20454;-74
2022/02/01 16:53:08;;;;;;;9.60;9.20;;;4.90;99.90;;;;;;5111048;28;20482;-73
2022/02/01 16:55:43;;;;;;;9.30;8.67;;;4.90;99.90;;;;;;5110903;28;20979;-72
2022/02/01 16:58:23;;;;;;;8.60;8.30;;;4.90;99.90;;;;;;5110721;28;20580;-73
2022/02/01 17:00:50;;;;;;;8.23;7.80;;;5.00;99.90;;;;;;5110822;28;20479;-73
2022/02/01 17:03:18;;;;;;;8.47;8.17;;;5.10;99.90;;;;;;5110859;28;20462;-73
2022/02/01 17:05:48;;;;;;;9.00;8.60;;;5.10;99.90;;;;;;5110997;28;20929;-73
2022/02/01 17:08:14;;;;;;;8.50;8.10;;;5.20;99.90;;;;;;5111010;28;20441;-73
2022/02/01 17:10:45;;;;;;;8.50;8.13;;;5.30;99.90;;;;;;5110006;28;20844;-73
2022/02/01 17:13:16;;;;;;;8.17;7.97;;;5.30;99.90;;;;;;5110396;28;20497;-72
2022/02/01 17:16:07;;;;;;;9.20;8.80;;;5.30;99.90;;;;;;5110565;28;20904;-73
2022/02/01 17:18:55;;;;;;;8.63;8.33;;;5.40;99.90;;;;;;5110646;28;20459;-73
2022/02/01 17:21:32;;;;;;;8.60;8.10;;;5.40;99.90;;;;;;5110550;28;20540;-73
2022/02/01 17:23:59;;;;;;;8.10;7.77;;;5.50;99.90;;;;;;5110617;28;20450;-73
2022/02/01 17:26:26;;;;;;;8.80;8.50;;;5.40;99.90;;;;;;5110301;28;20449;-72
2022/02/01 17:28:53;;;;;;;8.50;8.10;;;5.50;99.90;;;;;;5110092;28;20444;-74
2022/02/01 17:31:20;;;;;;;7.70;7.40;;;5.50;99.90;;;;;;5110313;28;20456;-73
2022/02/01 17:33:47;;;;;;;7.80;7.60;;;5.50;99.90;;;;;;5110681;28;20981;-74
2022/02/01 17:36:15;;;;;;;9.00;8.70;;;5.50;99.90;;;;;;5110465;28;20448;-73
2022/02/01 17:38:44;;;;;;;9.20;8.80;;;5.50;99.90;;;;;;5110178;28;20457;-73
2022/02/01 17:41:11;;;;;;;10.17;9.77;;;5.40;99.90;;;;;;5110127;28;20456;-73
2022/02/01 17:43:40;;;;;;;9.80;9.50;;;5.40;99.90;;;;;;5110167;28;20449;-74
2022/02/01 17:46:07;;;;;;;10.30;9.90;;;5.40;99.90;;;;;;5110052;28;20860;-73
2022/02/01 17:48:35;;;;;;;9.57;9.27;;;5.30;99.90;;;;;;5110258;28;20448;-73
2022/02/01 17:51:09;;;;;;;9.93;9.27;;;5.30;99.90;;;;;;5110290;28;20895;-74
2022/02/01 17:53:42;;;;;;;9.57;8.97;;;5.30;99.90;;;;;;5110025;28;20488;-73
2022/02/01 17:56:15;;;;;;;9.60;9.20;;;5.40;99.90;;;;;;5110012;28;20870;-74
2022/02/01 17:58:43;;;;;;;9.70;9.30;;;5.40;99.90;;;;;;5109920;28;20849;-74
